sensor_id;sensor_type;location;lat;lon;timestamp;P1;durP1;ratioP1;P2;durP2;ratioP2
77026;SDS011;65956;52.986;17.490;2024-01-15T00:00:31;11.90;;;7.50;;
77026;SDS011;65956;52.986;17.490;2024-01-15T00:03:18;9.90;;;7.00;;
77026;SDS011;65956;52.986;17.490;2024-01-15T00:05:45;10.70;;;6.80;;
77026;SDS011;65956;52.986;17.490;2024-01-15T00:08:12;9.80;;;6.40;;
77026;SDS011;65956;52.986;17.490;2024-01-15T00:10:38;9.00;;;5.60;;
77026;SDS011;65956;52.986;17.490;2024-01-15T00:13:07;11.20;;;6.90;;
77026;SDS011;65956;52.986;17.490;2024-01-15T00:15:33;9.20;;;6.40;;
77026;SDS011;65956;52.986;17.490;2024-01-15T00:18:00;10.30;;;6.10;;
77026;SDS011;65956;52.986;17.490;2024-01-15T00:20:27;9.90;;;6.10;;
77026;SDS011;65956;52.986;17.490;2024-01-15T00:22:54;12.30;;;6.90;;
77026;SDS011;65956;52.986;17.490;2024-01-15T00:25:21;11.50;;;7.40;;
77026;SDS011;65956;52.986;17.490;2024-01-15T00:27:48;12.80;;;7.30;;
77026;SDS011;65956;52.986;17.490;2024-01-15T00:30:15;11.30;;;7.00;;
77026;SDS011;65956;52.986;17.490;2024-01-15T00:32:42;10.60;;;6.70;;
77026;SDS011;65956;52.986;17.490;2024-01-15T00:35:08;11.60;;;7.20;;
77026;SDS011;65956;52.986;17.490;2024-01-15T00:37:35;11.80;;;6.70;;
77026;SDS011;65956;52.986;17.490;2024-01-15T00:40:03;10.10;;;6.70;;
77026;SDS011;65956;52.986;17.490;2024-01-15T00:42:30;11.60;;;6.80;;
77026;SDS011;65956;52.986;17.490;2024-01-15T00:44:57;9.60;;;6.40;;
77026;SDS011;65956;52.986;17.490;2024-01-15T00:47:24;11.00;;;6.60;;
77026;SDS011;65956;52.986;17.490;2024-01-15T00:49:50;11.50;;;6.60;;
77026;SDS011;65956;52.986;17.490;2024-01-15T00:52:17;11.10;;;6.90;;
77026;SDS011;65956;52.986;17.490;2024-01-15T00:54:44;11.40;;;6.50;;
77026;SDS011;65956;52.986;17.490;2024-01-15T00:57:11;9.90;;;6.60;;
77026;SDS011;65956;52.986;17.490;2024-01-15T00:59:38;9.80;;;6.10;;
77026;SDS011;65956;52.986;17.490;2024-01-15T01:02:05;11.60;;;7.10;;
77026;SDS011;65956;52.986;17.490;2024-01-15T01:04:32;18.10;;;10.10;;
77026;SDS011;65956;52.986;17.490;2024-01-15T01:06:59;13.40;;;8.30;;
77026;SDS011;65956;52.986;17.490;2024-01-15T01:09:26;11.10;;;6.90;;
77026;SDS011;65956;52.986;17.490;2024-01-15T01:11:56;9.20;;;5.70;;
77026;SDS011;65956;52.986;17.490;2024-01-15T01:14:23;11.60;;;6.50;;
77026;SDS011;65956;52.986;17.490;2024-01-15T01:16:50;11.70;;;6.60;;
77026;SDS011;65956;52.986;17.490;2024-01-15T01:19:17;11.10;;;5.80;;
77026;SDS011;65956;52.986;17.490;2024-01-15T01:21:44;10.50;;;5.90;;
77026;SDS011;65956;52.986;17.490;2024-01-15T01:24:11;9.80;;;5.10;;
77026;SDS011;65956;52.986;17.490;2024-01-15T01:26:38;8.80;;;5.30;;
77026;SDS011;65956;52.986;17.490;2024-01-15T01:29:05;9.60;;;6.30;;
77026;SDS011;65956;52.986;17.490;2024-01-15T01:31:32;10.10;;;6.10;;
77026;SDS011;65956;52.986;17.490;2024-01-15T01:33:58;10.50;;;6.10;;
77026;SDS011;65956;52.986;17.490;2024-01-15T01:36:25;9.00;;;5.40;;
77026;SDS011;65956;52.986;17.490;2024-01-15T01:38:53;9.30;;;5.60;;
77026;SDS011;65956;52.986;17.490;2024-01-15T01:41:20;11.00;;;6.20;;
77026;SDS011;65956;52.986;17.490;2024-01-15T01:43:46;12.30;;;7.40;;
77026;SDS011;65956;52.986;17.490;2024-01-15T01:46:13;11.90;;;6.80;;
77026;SDS011;65956;52.986;17.490;2024-01-15T01:48:40;11.50;;;6.60;;
77026;SDS011;65956;52.986;17.490;2024-01-15T01:51:07;9.20;;;5.50;;
77026;SDS011;65956;52.986;17.490;2024-01-15T01:53:34;9.10;;;5.60;;
77026;SDS011;65956;52.986;17.490;2024-01-15T01:56:04;9.50;;;5.30;;
77026;SDS011;65956;52.986;17.490;2024-01-15T01:58:32;9.80;;;5.20;;
77026;SDS011;65956;52.986;17.490;2024-01-15T02:01:00;8.40;;;4.80;;
77026;SDS011;65956;52.986;17.490;2024-01-15T02:03:27;8.20;;;5.00;;
77026;SDS011;65956;52.986;17.490;2024-01-15T02:05:54;8.60;;;4.90;;
77026;SDS011;65956;52.986;17.490;2024-01-15T02:08:21;9.20;;;4.60;;
77026;SDS011;65956;52.986;17.490;2024-01-15T02:10:49;8.80;;;5.40;;
77026;SDS011;65956;52.986;17.490;2024-01-15T02:13:16;9.40;;;4.70;;
77026;SDS011;65956;52.986;17.490;2024-01-15T02:15:44;10.20;;;5.40;;
77026;SDS011;65956;52.986;17.490;2024-01-15T02:18:11;9.40;;;5.80;;
77026;SDS011;65956;52.986;17.490;2024-01-15T02:20:38;9.40;;;5.70;;
77026;SDS011;65956;52.986;17.490;2024-01-15T02:23:07;9.40;;;5.80;;
77026;SDS011;65956;52.986;17.490;2024-01-15T02:25:40;10.10;;;6.20;;
77026;SDS011;65956;52.986;17.490;2024-01-15T02:28:12;8.50;;;5.50;;
77026;SDS011;65956;52.986;17.490;2024-01-15T02:30:41;10.30;;;5.80;;
77026;SDS011;65956;52.986;17.490;2024-01-15T02:33:09;10.10;;;6.10;;
77026;SDS011;65956;52.986;17.490;2024-01-15T02:35:37;8.70;;;5.30;;
77026;SDS011;65956;52.986;17.490;2024-01-15T02:38:04;9.80;;;5.50;;
77026;SDS011;65956;52.986;17.490;2024-01-15T02:40:32;10.70;;;6.00;;
77026;SDS011;65956;52.986;17.490;2024-01-15T02:42:59;10.20;;;5.80;;
77026;SDS011;65956;52.986;17.490;2024-01-15T02:45:26;9.20;;;5.80;;
77026;SDS011;65956;52.986;17.490;2024-01-15T02:47:53;9.30;;;5.40;;
77026;SDS011;65956;52.986;17.490;2024-01-15T02:50:20;9.20;;;5.20;;
77026;SDS011;65956;52.986;17.490;2024-01-15T02:52:48;9.70;;;5.20;;
77026;SDS011;65956;52.986;17.490;2024-01-15T02:55:14;10.10;;;5.80;;
77026;SDS011;65956;52.986;17.490;2024-01-15T02:57:41;10.50;;;6.00;;
77026;SDS011;65956;52.986;17.490;2024-01-15T03:00:08;12.00;;;6.60;;
77026;SDS011;65956;52.986;17.490;2024-01-15T03:02:36;10.80;;;5.60;;
77026;SDS011;65956;52.986;17.490;2024-01-15T03:05:06;10.50;;;6.10;;
77026;SDS011;65956;52.986;17.490;2024-01-15T03:07:34;11.80;;;6.40;;
77026;SDS011;65956;52.986;17.490;2024-01-15T03:10:01;12.90;;;7.30;;
77026;SDS011;65956;52.986;17.490;2024-01-15T03:12:29;12.20;;;7.50;;
77026;SDS011;65956;52.986;17.490;2024-01-15T03:14:55;12.50;;;6.70;;
77026;SDS011;65956;52.986;17.490;2024-01-15T03:17:22;10.70;;;5.80;;
77026;SDS011;65956;52.986;17.490;2024-01-15T03:19:49;11.10;;;6.30;;
77026;SDS011;65956;52.986;17.490;2024-01-15T03:22:17;13.00;;;7.10;;
77026;SDS011;65956;52.986;17.490;2024-01-15T03:24:44;12.20;;;6.30;;
77026;SDS011;65956;52.986;17.490;2024-01-15T03:27:11;8.80;;;4.90;;
77026;SDS011;65956;52.986;17.490;2024-01-15T03:29:39;12.60;;;6.80;;
77026;SDS011;65956;52.986;17.490;2024-01-15T03:32:06;9.90;;;5.50;;
77026;SDS011;65956;52.986;17.490;2024-01-15T03:34:33;11.90;;;6.80;;
77026;SDS011;65956;52.986;17.490;2024-01-15T03:37:00;11.00;;;6.20;;
77026;SDS011;65956;52.986;17.490;2024-01-15T03:39:27;11.10;;;5.80;;
77026;SDS011;65956;52.986;17.490;2024-01-15T03:41:53;12.80;;;6.30;;
77026;SDS011;65956;52.986;17.490;2024-01-15T03:44:21;13.50;;;6.20;;
77026;SDS011;65956;52.986;17.490;2024-01-15T03:46:47;10.60;;;6.00;;
77026;SDS011;65956;52.986;17.490;2024-01-15T03:49:14;9.40;;;5.50;;
77026;SDS011;65956;52.986;17.490;2024-01-15T03:51:41;11.90;;;6.30;;
77026;SDS011;65956;52.986;17.490;2024-01-15T03:54:08;9.80;;;5.50;;
77026;SDS011;65956;52.986;17.490;2024-01-15T03:56:35;10.50;;;5.00;;
77026;SDS011;65956;52.986;17.490;2024-01-15T03:59:02;11.80;;;6.60;;
77026;SDS011;65956;52.986;17.490;2024-01-15T04:01:29;11.50;;;6.10;;
77026;SDS011;65956;52.986;17.490;2024-01-15T04:03:56;12.70;;;6.60;;
77026;SDS011;65956;52.986;17.490;2024-01-15T04:06:23;9.60;;;5.80;;
77026;SDS011;65956;52.986;17.490;2024-01-15T04:08:50;12.10;;;6.30;;
77026;SDS011;65956;52.986;17.490;2024-01-15T04:11:17;11.50;;;5.70;;
77026;SDS011;65956;52.986;17.490;2024-01-15T04:13:44;7.50;;;3.70;;
77026;SDS011;65956;52.986;17.490;2024-01-15T04:16:10;9.30;;;4.60;;
77026;SDS011;65956;52.986;17.490;2024-01-15T04:18:37;9.50;;;5.00;;
77026;SDS011;65956;52.986;17.490;2024-01-15T04:21:05;9.30;;;4.60;;
77026;SDS011;65956;52.986;17.490;2024-01-15T04:23:32;6.40;;;3.10;;
77026;SDS011;65956;52.986;17.490;2024-01-15T04:26:00;7.70;;;3.20;;
77026;SDS011;65956;52.986;17.490;2024-01-15T04:28:27;5.90;;;3.30;;
77026;SDS011;65956;52.986;17.490;2024-01-15T04:30:54;5.20;;;2.30;;
77026;SDS011;65956;52.986;17.490;2024-01-15T04:33:21;6.40;;;2.40;;
77026;SDS011;65956;52.986;17.490;2024-01-15T04:35:48;4.70;;;1.90;;
77026;SDS011;65956;52.986;17.490;2024-01-15T04:38:16;6.00;;;1.90;;
77026;SDS011;65956;52.986;17.490;2024-01-15T04:40:45;4.80;;;1.60;;
77026;SDS011;65956;52.986;17.490;2024-01-15T04:43:12;5.20;;;1.50;;
77026;SDS011;65956;52.986;17.490;2024-01-15T04:45:39;4.70;;;1.40;;
77026;SDS011;65956;52.986;17.490;2024-01-15T04:48:06;29.50;;;12.00;;
77026;SDS011;65956;52.986;17.490;2024-01-15T04:50:33;45.10;;;15.00;;
77026;SDS011;65956;52.986;17.490;2024-01-15T04:53:00;9.70;;;3.70;;
77026;SDS011;65956;52.986;17.490;2024-01-15T04:55:27;13.20;;;5.60;;
77026;SDS011;65956;52.986;17.490;2024-01-15T04:57:53;64.70;;;23.10;;
77026;SDS011;65956;52.986;17.490;2024-01-15T05:00:20;94.90;;;31.10;;
77026;SDS011;65956;52.986;17.490;2024-01-15T05:02:47;41.50;;;14.60;;
77026;SDS011;65956;52.986;17.490;2024-01-15T05:05:15;20.70;;;8.90;;
77026;SDS011;65956;52.986;17.490;2024-01-15T05:07:42;17.40;;;8.00;;
77026;SDS011;65956;52.986;17.490;2024-01-15T05:10:09;7.30;;;3.80;;
77026;SDS011;65956;52.986;17.490;2024-01-15T05:12:36;6.10;;;3.40;;
77026;SDS011;65956;52.986;17.490;2024-01-15T05:15:03;5.90;;;2.90;;
77026;SDS011;65956;52.986;17.490;2024-01-15T05:17:31;5.50;;;2.90;;
77026;SDS011;65956;52.986;17.490;2024-01-15T05:19:57;4.70;;;2.40;;
77026;SDS011;65956;52.986;17.490;2024-01-15T05:22:24;4.70;;;2.10;;
77026;SDS011;65956;52.986;17.490;2024-01-15T05:24:51;5.20;;;2.60;;
77026;SDS011;65956;52.986;17.490;2024-01-15T05:27:18;7.70;;;3.20;;
77026;SDS011;65956;52.986;17.490;2024-01-15T05:29:45;6.20;;;2.90;;
77026;SDS011;65956;52.986;17.490;2024-01-15T05:32:12;6.40;;;2.90;;
77026;SDS011;65956;52.986;17.490;2024-01-15T05:34:39;7.40;;;3.40;;
77026;SDS011;65956;52.986;17.490;2024-01-15T05:37:05;7.10;;;3.70;;
77026;SDS011;65956;52.986;17.490;2024-01-15T05:39:32;7.90;;;3.10;;
77026;SDS011;65956;52.986;17.490;2024-01-15T05:41:59;7.00;;;3.00;;
77026;SDS011;65956;52.986;17.490;2024-01-15T05:44:27;8.60;;;3.70;;
77026;SDS011;65956;52.986;17.490;2024-01-15T05:46:53;6.60;;;3.20;;
77026;SDS011;65956;52.986;17.490;2024-01-15T05:49:21;6.50;;;3.10;;
77026;SDS011;65956;52.986;17.490;2024-01-15T05:51:47;8.70;;;3.30;;
77026;SDS011;65956;52.986;17.490;2024-01-15T05:54:14;7.20;;;3.30;;
77026;SDS011;65956;52.986;17.490;2024-01-15T05:56:41;7.10;;;3.00;;
77026;SDS011;65956;52.986;17.490;2024-01-15T05:59:08;6.60;;;3.20;;
77026;SDS011;65956;52.986;17.490;2024-01-15T06:01:35;10.00;;;4.20;;
77026;SDS011;65956;52.986;17.490;2024-01-15T06:04:01;5.20;;;2.90;;
77026;SDS011;65956;52.986;17.490;2024-01-15T06:06:28;5.80;;;2.80;;
77026;SDS011;65956;52.986;17.490;2024-01-15T06:08:56;6.80;;;2.30;;
77026;SDS011;65956;52.986;17.490;2024-01-15T06:11:32;5.50;;;2.30;;
77026;SDS011;65956;52.986;17.490;2024-01-15T06:13:59;5.20;;;2.30;;
77026;SDS011;65956;52.986;17.490;2024-01-15T06:16:29;8.20;;;2.50;;
77026;SDS011;65956;52.986;17.490;2024-01-15T06:18:59;5.50;;;2.70;;
77026;SDS011;65956;52.986;17.490;2024-01-15T06:21:26;5.00;;;2.20;;
77026;SDS011;65956;52.986;17.490;2024-01-15T06:23:53;6.40;;;2.40;;
77026;SDS011;65956;52.986;17.490;2024-01-15T06:26:19;5.70;;;2.40;;
77026;SDS011;65956;52.986;17.490;2024-01-15T06:28:46;5.60;;;2.20;;
77026;SDS011;65956;52.986;17.490;2024-01-15T06:31:13;5.50;;;2.40;;
77026;SDS011;65956;52.986;17.490;2024-01-15T06:33:40;7.80;;;2.90;;
77026;SDS011;65956;52.986;17.490;2024-01-15T06:36:07;8.40;;;3.00;;
77026;SDS011;65956;52.986;17.490;2024-01-15T06:38:34;7.10;;;2.60;;
77026;SDS011;65956;52.986;17.490;2024-01-15T06:41:01;6.90;;;3.00;;
77026;SDS011;65956;52.986;17.490;2024-01-15T06:43:28;5.70;;;3.10;;
77026;SDS011;65956;52.986;17.490;2024-01-15T06:45:55;7.10;;;3.00;;
77026;SDS011;65956;52.986;17.490;2024-01-15T06:48:22;9.10;;;3.40;;
77026;SDS011;65956;52.986;17.490;2024-01-15T06:50:49;5.40;;;2.80;;
77026;SDS011;65956;52.986;17.490;2024-01-15T06:53:16;6.30;;;3.10;;
77026;SDS011;65956;52.986;17.490;2024-01-15T06:55:43;8.30;;;3.90;;
77026;SDS011;65956;52.986;17.490;2024-01-15T06:58:10;7.60;;;3.40;;
77026;SDS011;65956;52.986;17.490;2024-01-15T07:00:36;7.90;;;3.60;;
77026;SDS011;65956;52.986;17.490;2024-01-15T07:03:04;5.60;;;3.10;;
77026;SDS011;65956;52.986;17.490;2024-01-15T07:05:31;6.90;;;3.10;;
77026;SDS011;65956;52.986;17.490;2024-01-15T07:07:58;6.50;;;3.00;;
77026;SDS011;65956;52.986;17.490;2024-01-15T07:10:26;6.30;;;3.20;;
77026;SDS011;65956;52.986;17.490;2024-01-15T07:12:52;6.50;;;3.00;;
77026;SDS011;65956;52.986;17.490;2024-01-15T07:15:20;8.50;;;3.70;;
77026;SDS011;65956;52.986;17.490;2024-01-15T07:17:47;8.60;;;3.60;;
77026;SDS011;65956;52.986;17.490;2024-01-15T07:20:13;8.70;;;3.90;;
77026;SDS011;65956;52.986;17.490;2024-01-15T07:22:40;11.60;;;4.70;;
77026;SDS011;65956;52.986;17.490;2024-01-15T07:25:07;9.00;;;4.20;;
77026;SDS011;65956;52.986;17.490;2024-01-15T07:27:34;10.80;;;4.70;;
77026;SDS011;65956;52.986;17.490;2024-01-15T07:30:01;8.20;;;3.50;;
77026;SDS011;65956;52.986;17.490;2024-01-15T07:32:31;9.90;;;3.70;;
77026;SDS011;65956;52.986;17.490;2024-01-15T07:34:58;10.60;;;4.30;;
77026;SDS011;65956;52.986;17.490;2024-01-15T07:37:26;7.50;;;3.50;;
77026;SDS011;65956;52.986;17.490;2024-01-15T07:39:53;7.70;;;3.60;;
77026;SDS011;65956;52.986;17.490;2024-01-15T07:42:20;9.40;;;3.60;;
77026;SDS011;65956;52.986;17.490;2024-01-15T07:44:46;8.60;;;4.10;;
77026;SDS011;65956;52.986;17.490;2024-01-15T07:47:13;6.40;;;3.10;;
77026;SDS011;65956;52.986;17.490;2024-01-15T07:49:40;10.30;;;4.00;;
77026;SDS011;65956;52.986;17.490;2024-01-15T07:52:07;5.80;;;2.90;;
77026;SDS011;65956;52.986;17.490;2024-01-15T07:54:34;8.30;;;3.20;;
77026;SDS011;65956;52.986;17.490;2024-01-15T07:57:02;8.90;;;3.50;;
77026;SDS011;65956;52.986;17.490;2024-01-15T07:59:32;9.00;;;3.00;;
77026;SDS011;65956;52.986;17.490;2024-01-15T08:01:59;9.10;;;4.00;;
77026;SDS011;65956;52.986;17.490;2024-01-15T08:04:26;8.70;;;3.10;;
77026;SDS011;65956;52.986;17.490;2024-01-15T08:06:53;9.70;;;3.20;;
77026;SDS011;65956;52.986;17.490;2024-01-15T08:09:20;5.70;;;2.40;;
77026;SDS011;65956;52.986;17.490;2024-01-15T08:11:47;6.90;;;3.20;;
77026;SDS011;65956;52.986;17.490;2024-01-15T08:14:14;6.80;;;2.60;;
77026;SDS011;65956;52.986;17.490;2024-01-15T08:16:41;8.80;;;3.80;;
77026;SDS011;65956;52.986;17.490;2024-01-15T08:19:10;8.70;;;3.10;;
77026;SDS011;65956;52.986;17.490;2024-01-15T08:21:37;6.80;;;2.80;;
77026;SDS011;65956;52.986;17.490;2024-01-15T08:24:04;9.30;;;3.60;;
77026;SDS011;65956;52.986;17.490;2024-01-15T08:26:32;6.90;;;3.00;;
77026;SDS011;65956;52.986;17.490;2024-01-15T08:28:59;6.50;;;3.30;;
77026;SDS011;65956;52.986;17.490;2024-01-15T08:31:26;6.00;;;2.40;;
77026;SDS011;65956;52.986;17.490;2024-01-15T08:33:53;8.40;;;2.80;;
77026;SDS011;65956;52.986;17.490;2024-01-15T08:36:21;5.60;;;2.40;;
77026;SDS011;65956;52.986;17.490;2024-01-15T08:38:48;5.00;;;2.30;;
77026;SDS011;65956;52.986;17.490;2024-01-15T08:41:15;8.10;;;3.40;;
77026;SDS011;65956;52.986;17.490;2024-01-15T08:43:42;6.70;;;3.10;;
77026;SDS011;65956;52.986;17.490;2024-01-15T08:46:09;6.30;;;2.80;;
77026;SDS011;65956;52.986;17.490;2024-01-15T08:48:36;7.00;;;2.80;;
77026;SDS011;65956;52.986;17.490;2024-01-15T08:51:03;8.80;;;4.00;;
77026;SDS011;65956;52.986;17.490;2024-01-15T08:53:30;7.70;;;3.50;;
77026;SDS011;65956;52.986;17.490;2024-01-15T08:55:57;10.70;;;3.60;;
77026;SDS011;65956;52.986;17.490;2024-01-15T08:58:24;10.10;;;3.40;;
77026;SDS011;65956;52.986;17.490;2024-01-15T09:00:51;10.60;;;3.70;;
77026;SDS011;65956;52.986;17.490;2024-01-15T09:03:18;9.50;;;4.70;;
77026;SDS011;65956;52.986;17.490;2024-01-15T09:05:45;11.20;;;3.90;;
77026;SDS011;65956;52.986;17.490;2024-01-15T09:08:12;6.70;;;2.60;;
77026;SDS011;65956;52.986;17.490;2024-01-15T09:10:39;8.20;;;3.50;;
77026;SDS011;65956;52.986;17.490;2024-01-15T09:13:07;7.80;;;3.60;;
77026;SDS011;65956;52.986;17.490;2024-01-15T09:15:34;8.10;;;3.80;;
77026;SDS011;65956;52.986;17.490;2024-01-15T09:18:01;13.10;;;5.00;;
77026;SDS011;65956;52.986;17.490;2024-01-15T09:20:28;14.00;;;4.60;;
77026;SDS011;65956;52.986;17.490;2024-01-15T09:22:55;12.00;;;5.00;;
77026;SDS011;65956;52.986;17.490;2024-01-15T09:25:22;11.60;;;4.30;;
77026;SDS011;65956;52.986;17.490;2024-01-15T09:27:49;7.00;;;3.20;;
77026;SDS011;65956;52.986;17.490;2024-01-15T09:30:16;6.60;;;3.20;;
77026;SDS011;65956;52.986;17.490;2024-01-15T09:32:43;7.60;;;3.10;;
77026;SDS011;65956;52.986;17.490;2024-01-15T09:35:09;5.30;;;2.50;;
77026;SDS011;65956;52.986;17.490;2024-01-15T09:37:37;6.80;;;2.90;;
77026;SDS011;65956;52.986;17.490;2024-01-15T09:40:05;6.30;;;2.50;;
77026;SDS011;65956;52.986;17.490;2024-01-15T09:42:33;7.60;;;3.90;;
77026;SDS011;65956;52.986;17.490;2024-01-15T09:45:02;6.80;;;2.80;;
77026;SDS011;65956;52.986;17.490;2024-01-15T09:47:30;8.00;;;3.00;;
77026;SDS011;65956;52.986;17.490;2024-01-15T09:49:57;6.00;;;2.10;;
77026;SDS011;65956;52.986;17.490;2024-01-15T09:52:25;6.70;;;2.90;;
77026;SDS011;65956;52.986;17.490;2024-01-15T09:54:51;6.00;;;2.90;;
77026;SDS011;65956;52.986;17.490;2024-01-15T09:57:19;5.20;;;2.60;;
77026;SDS011;65956;52.986;17.490;2024-01-15T09:59:46;7.10;;;2.50;;
77026;SDS011;65956;52.986;17.490;2024-01-15T10:02:14;6.30;;;3.20;;
77026;SDS011;65956;52.986;17.490;2024-01-15T10:04:44;17.90;;;7.00;;
77026;SDS011;65956;52.986;17.490;2024-01-15T10:07:15;38.70;;;13.10;;
77026;SDS011;65956;52.986;17.490;2024-01-15T10:09:45;28.40;;;11.30;;
77026;SDS011;65956;52.986;17.490;2024-01-15T10:12:13;25.00;;;10.10;;
77026;SDS011;65956;52.986;17.490;2024-01-15T10:14:40;16.50;;;7.50;;
77026;SDS011;65956;52.986;17.490;2024-01-15T10:17:15;8.30;;;3.30;;
77026;SDS011;65956;52.986;17.490;2024-01-15T10:19:46;8.20;;;3.00;;
77026;SDS011;65956;52.986;17.490;2024-01-15T10:22:13;9.40;;;3.60;;
77026;SDS011;65956;52.986;17.490;2024-01-15T10:24:42;6.00;;;2.50;;
77026;SDS011;65956;52.986;17.490;2024-01-15T10:27:09;11.20;;;2.90;;
77026;SDS011;65956;52.986;17.490;2024-01-15T10:29:37;11.90;;;3.90;;
77026;SDS011;65956;52.986;17.490;2024-01-15T10:32:06;17.50;;;4.60;;
77026;SDS011;65956;52.986;17.490;2024-01-15T10:37:07;6.50;;;2.10;;
77026;SDS011;65956;52.986;17.490;2024-01-15T10:39:34;4.40;;;1.40;;
77026;SDS011;65956;52.986;17.490;2024-01-15T10:42:03;5.00;;;1.40;;
77026;SDS011;65956;52.986;17.490;2024-01-15T10:44:30;8.30;;;2.20;;
77026;SDS011;65956;52.986;17.490;2024-01-15T10:46:57;14.10;;;6.60;;
77026;SDS011;65956;52.986;17.490;2024-01-15T10:49:24;11.80;;;5.30;;
77026;SDS011;65956;52.986;17.490;2024-01-15T10:54:22;25.50;;;10.90;;
77026;SDS011;65956;52.986;17.490;2024-01-15T10:56:50;20.80;;;10.20;;
77026;SDS011;65956;52.986;17.490;2024-01-15T10:59:18;33.10;;;12.20;;
77026;SDS011;65956;52.986;17.490;2024-01-15T11:01:49;23.60;;;9.80;;
77026;SDS011;65956;52.986;17.490;2024-01-15T11:04:20;28.20;;;10.70;;
77026;SDS011;65956;52.986;17.490;2024-01-15T11:06:49;10.90;;;5.40;;
77026;SDS011;65956;52.986;17.490;2024-01-15T11:09:18;6.70;;;2.80;;
77026;SDS011;65956;52.986;17.490;2024-01-15T11:11:46;4.80;;;1.70;;
77026;SDS011;65956;52.986;17.490;2024-01-15T11:15:00;4.10;;;1.40;;
77026;SDS011;65956;52.986;17.490;2024-01-15T11:17:02;6.00;;;2.60;;
77026;SDS011;65956;52.986;17.490;2024-01-15T11:22:09;5.60;;;2.50;;
77026;SDS011;65956;52.986;17.490;2024-01-15T11:27:06;6.40;;;2.30;;
77026;SDS011;65956;52.986;17.490;2024-01-15T11:29:38;5.00;;;1.80;;
77026;SDS011;65956;52.986;17.490;2024-01-15T11:32:05;6.20;;;1.80;;
77026;SDS011;65956;52.986;17.490;2024-01-15T11:37:26;4.90;;;1.40;;
77026;SDS011;65956;52.986;17.490;2024-01-15T11:39:54;8.00;;;1.50;;
77026;SDS011;65956;52.986;17.490;2024-01-15T11:42:22;8.30;;;2.90;;
77026;SDS011;65956;52.986;17.490;2024-01-15T11:44:49;5.50;;;2.00;;
77026;SDS011;65956;52.986;17.490;2024-01-15T11:47:17;6.60;;;2.60;;
77026;SDS011;65956;52.986;17.490;2024-01-15T11:50:06;6.60;;;1.60;;
77026;SDS011;65956;52.986;17.490;2024-01-15T11:52:38;4.40;;;1.70;;
77026;SDS011;65956;52.986;17.490;2024-01-15T11:57:42;8.00;;;2.70;;
77026;SDS011;65956;52.986;17.490;2024-01-15T12:00:14;6.50;;;2.30;;
77026;SDS011;65956;52.986;17.490;2024-01-15T12:02:44;6.80;;;1.70;;
77026;SDS011;65956;52.986;17.490;2024-01-15T12:05:14;8.90;;;2.60;;
77026;SDS011;65956;52.986;17.490;2024-01-15T12:07:44;4.60;;;1.60;;
77026;SDS011;65956;52.986;17.490;2024-01-15T12:10:18;8.50;;;2.90;;
77026;SDS011;65956;52.986;17.490;2024-01-15T12:12:59;5.20;;;2.00;;
77026;SDS011;65956;52.986;17.490;2024-01-15T12:15:27;5.80;;;1.80;;
77026;SDS011;65956;52.986;17.490;2024-01-15T12:17:59;5.70;;;2.60;;
77026;SDS011;65956;52.986;17.490;2024-01-15T12:20:29;5.60;;;2.10;;
77026;SDS011;65956;52.986;17.490;2024-01-15T12:22:59;5.10;;;2.00;;
77026;SDS011;65956;52.986;17.490;2024-01-15T12:25:26;8.50;;;2.30;;
77026;SDS011;65956;52.986;17.490;2024-01-15T12:27:54;5.40;;;2.00;;
77026;SDS011;65956;52.986;17.490;2024-01-15T12:30:22;5.10;;;1.50;;
77026;SDS011;65956;52.986;17.490;2024-01-15T12:32:49;5.20;;;2.00;;
77026;SDS011;65956;52.986;17.490;2024-01-15T12:35:16;6.40;;;2.50;;
77026;SDS011;65956;52.986;17.490;2024-01-15T12:37:43;6.90;;;2.30;;
77026;SDS011;65956;52.986;17.490;2024-01-15T12:40:13;8.30;;;3.50;;
77026;SDS011;65956;52.986;17.490;2024-01-15T12:42:46;6.90;;;1.90;;
77026;SDS011;65956;52.986;17.490;2024-01-15T12:45:12;4.80;;;1.50;;
77026;SDS011;65956;52.986;17.490;2024-01-15T12:47:40;7.00;;;1.90;;
77026;SDS011;65956;52.986;17.490;2024-01-15T12:50:11;2.90;;;1.10;;
77026;SDS011;65956;52.986;17.490;2024-01-15T12:52:42;3.90;;;1.40;;
77026;SDS011;65956;52.986;17.490;2024-01-15T12:55:09;6.50;;;1.90;;
77026;SDS011;65956;52.986;17.490;2024-01-15T12:57:37;4.60;;;1.10;;
77026;SDS011;65956;52.986;17.490;2024-01-15T13:00:04;5.90;;;1.60;;
77026;SDS011;65956;52.986;17.490;2024-01-15T13:02:38;5.90;;;1.80;;
77026;SDS011;65956;52.986;17.490;2024-01-15T13:05:09;5.50;;;1.90;;
77026;SDS011;65956;52.986;17.490;2024-01-15T13:07:39;5.60;;;1.80;;
77026;SDS011;65956;52.986;17.490;2024-01-15T13:10:06;7.40;;;2.10;;
77026;SDS011;65956;52.986;17.490;2024-01-15T13:12:35;10.70;;;4.60;;
77026;SDS011;65956;52.986;17.490;2024-01-15T13:15:03;10.00;;;4.60;;
77026;SDS011;65956;52.986;17.490;2024-01-15T13:17:30;11.60;;;4.70;;
77026;SDS011;65956;52.986;17.490;2024-01-15T13:19:57;7.90;;;3.30;;
77026;SDS011;65956;52.986;17.490;2024-01-15T13:22:24;9.60;;;4.30;;
77026;SDS011;65956;52.986;17.490;2024-01-15T13:24:58;8.10;;;2.40;;
77026;SDS011;65956;52.986;17.490;2024-01-15T13:27:26;10.80;;;4.20;;
77026;SDS011;65956;52.986;17.490;2024-01-15T13:29:52;10.00;;;4.40;;
77026;SDS011;65956;52.986;17.490;2024-01-15T13:32:23;7.70;;;3.40;;
77026;SDS011;65956;52.986;17.490;2024-01-15T13:34:52;6.10;;;2.20;;
77026;SDS011;65956;52.986;17.490;2024-01-15T13:37:20;5.00;;;1.60;;
77026;SDS011;65956;52.986;17.490;2024-01-15T13:39:47;6.20;;;2.60;;
77026;SDS011;65956;52.986;17.490;2024-01-15T13:42:14;49.80;;;19.90;;
77026;SDS011;65956;52.986;17.490;2024-01-15T13:44:42;61.90;;;20.50;;
77026;SDS011;65956;52.986;17.490;2024-01-15T13:47:09;25.50;;;8.30;;
77026;SDS011;65956;52.986;17.490;2024-01-15T13:49:37;21.50;;;7.30;;
77026;SDS011;65956;52.986;17.490;2024-01-15T13:52:03;37.90;;;14.80;;
77026;SDS011;65956;52.986;17.490;2024-01-15T13:54:31;42.50;;;15.40;;
77026;SDS011;65956;52.986;17.490;2024-01-15T13:56:57;16.50;;;6.90;;
77026;SDS011;65956;52.986;17.490;2024-01-15T13:59:25;23.60;;;7.00;;
77026;SDS011;65956;52.986;17.490;2024-01-15T14:01:52;9.90;;;3.20;;
77026;SDS011;65956;52.986;17.490;2024-01-15T14:04:19;14.70;;;5.40;;
77026;SDS011;65956;52.986;17.490;2024-01-15T14:06:46;25.90;;;12.90;;
77026;SDS011;65956;52.986;17.490;2024-01-15T14:09:13;35.20;;;14.40;;
77026;SDS011;65956;52.986;17.490;2024-01-15T14:11:40;28.80;;;10.90;;
77026;SDS011;65956;52.986;17.490;2024-01-15T14:14:07;20.60;;;8.10;;
77026;SDS011;65956;52.986;17.490;2024-01-15T14:16:35;13.50;;;5.60;;
77026;SDS011;65956;52.986;17.490;2024-01-15T14:19:02;11.00;;;3.60;;
77026;SDS011;65956;52.986;17.490;2024-01-15T14:21:29;35.60;;;13.00;;
77026;SDS011;65956;52.986;17.490;2024-01-15T14:23:56;9.30;;;4.10;;
77026;SDS011;65956;52.986;17.490;2024-01-15T14:26:32;10.90;;;5.00;;
77026;SDS011;65956;52.986;17.490;2024-01-15T14:28:58;7.60;;;3.20;;
77026;SDS011;65956;52.986;17.490;2024-01-15T14:31:25;10.70;;;5.10;;
77026;SDS011;65956;52.986;17.490;2024-01-15T14:33:52;7.70;;;2.60;;
77026;SDS011;65956;52.986;17.490;2024-01-15T14:36:21;7.70;;;3.30;;
77026;SDS011;65956;52.986;17.490;2024-01-15T14:38:48;13.30;;;4.90;;
77026;SDS011;65956;52.986;17.490;2024-01-15T14:41:15;8.60;;;3.00;;
77026;SDS011;65956;52.986;17.490;2024-01-15T14:43:43;7.10;;;2.60;;
77026;SDS011;65956;52.986;17.490;2024-01-15T14:46:11;9.70;;;4.10;;